sensor_id;sensor_type;location;lat;lon;timestamp;P1;durP1;ratioP1;P2;durP2;ratioP2
31210;SDS011;17836;50.948;3.946;2023-09-07T00:04:55;6.03;;;5.35;;
31210;SDS011;17836;50.948;3.946;2023-09-07T00:07:20;7.73;;;5.57;;
31210;SDS011;17836;50.948;3.946;2023-09-07T00:09:45;5.40;;;4.87;;
31210;SDS011;17836;50.948;3.946;2023-09-07T00:12:10;6.53;;;5.93;;
31210;SDS011;17836;50.948;3.946;2023-09-07T00:14:36;10.37;;;6.27;;
31210;SDS011;17836;50.948;3.946;2023-09-07T00:17:01;8.30;;;6.90;;
31210;SDS011;17836;50.948;3.946;2023-09-07T00:19:27;7.43;;;6.72;;
31210;SDS011;17836;50.948;3.946;2023-09-07T00:21:54;8.07;;;6.72;;
31210;SDS011;17836;50.948;3.946;2023-09-07T00:24:21;7.87;;;7.07;;
31210;SDS011;17836;50.948;3.946;2023-09-07T00:26:48;7.30;;;6.60;;
31210;SDS011;17836;50.948;3.946;2023-09-07T00:29:13;6.88;;;6.20;;
31210;SDS011;17836;50.948;3.946;2023-09-07T00:31:39;7.97;;;7.10;;
31210;SDS011;17836;50.948;3.946;2023-09-07T00:34:06;7.20;;;6.60;;
31210;SDS011;17836;50.948;3.946;2023-09-07T00:36:31;7.03;;;6.38;;
31210;SDS011;17836;50.948;3.946;2023-09-07T00:38:56;6.97;;;6.37;;
31210;SDS011;17836;50.948;3.946;2023-09-07T00:41:22;6.50;;;5.90;;
31210;SDS011;17836;50.948;3.946;2023-09-07T00:43:47;7.10;;;6.40;;
31210;SDS011;17836;50.948;3.946;2023-09-07T00:46:14;7.00;;;6.30;;
31210;SDS011;17836;50.948;3.946;2023-09-07T00:48:40;8.38;;;6.95;;
31210;SDS011;17836;50.948;3.946;2023-09-07T00:51:05;9.82;;;7.57;;
31210;SDS011;17836;50.948;3.946;2023-09-07T00:53:33;7.85;;;6.70;;
31210;SDS011;17836;50.948;3.946;2023-09-07T00:56:00;8.90;;;7.03;;
31210;SDS011;17836;50.948;3.946;2023-09-07T00:58:25;8.98;;;6.82;;
31210;SDS011;17836;50.948;3.946;2023-09-07T01:00:51;7.60;;;6.90;;
31210;SDS011;17836;50.948;3.946;2023-09-07T01:03:18;7.20;;;6.60;;
31210;SDS011;17836;50.948;3.946;2023-09-07T01:05:51;7.50;;;6.80;;
31210;SDS011;17836;50.948;3.946;2023-09-07T01:08:19;6.60;;;6.00;;
31210;SDS011;17836;50.948;3.946;2023-09-07T01:13:13;6.57;;;5.97;;
31210;SDS011;17836;50.948;3.946;2023-09-07T01:15:38;7.77;;;6.87;;
31210;SDS011;17836;50.948;3.946;2023-09-07T01:18:04;7.67;;;6.90;;
31210;SDS011;17836;50.948;3.946;2023-09-07T01:20:30;7.75;;;7.05;;
31210;SDS011;17836;50.948;3.946;2023-09-07T01:22:56;8.25;;;7.35;;
31210;SDS011;17836;50.948;3.946;2023-09-07T01:25:21;9.93;;;7.28;;
31210;SDS011;17836;50.948;3.946;2023-09-07T01:27:47;7.60;;;6.60;;
31210;SDS011;17836;50.948;3.946;2023-09-07T01:30:15;7.57;;;6.88;;
31210;SDS011;17836;50.948;3.946;2023-09-07T01:32:41;8.55;;;7.60;;
31210;SDS011;17836;50.948;3.946;2023-09-07T01:35:07;8.00;;;7.20;;
31210;SDS011;17836;50.948;3.946;2023-09-07T01:37:35;8.90;;;7.30;;
31210;SDS011;17836;50.948;3.946;2023-09-07T01:40:02;7.57;;;6.77;;
31210;SDS011;17836;50.948;3.946;2023-09-07T01:42:32;8.05;;;7.35;;
31210;SDS011;17836;50.948;3.946;2023-09-07T01:44:58;9.40;;;6.90;;
31210;SDS011;17836;50.948;3.946;2023-09-07T01:47:23;10.93;;;6.10;;
31210;SDS011;17836;50.948;3.946;2023-09-07T01:49:48;8.57;;;6.40;;
31210;SDS011;17836;50.948;3.946;2023-09-07T01:52:13;7.20;;;6.50;;
31210;SDS011;17836;50.948;3.946;2023-09-07T01:54:39;7.63;;;5.57;;
31210;SDS011;17836;50.948;3.946;2023-09-07T01:57:04;8.02;;;6.25;;
31210;SDS011;17836;50.948;3.946;2023-09-07T01:59:29;6.60;;;6.10;;
31210;SDS011;17836;50.948;3.946;2023-09-07T02:01:54;6.57;;;5.93;;
31210;SDS011;17836;50.948;3.946;2023-09-07T02:04:20;6.83;;;6.17;;
31210;SDS011;17836;50.948;3.946;2023-09-07T02:06:45;6.10;;;5.50;;
31210;SDS011;17836;50.948;3.946;2023-09-07T02:09:10;7.00;;;6.40;;
31210;SDS011;17836;50.948;3.946;2023-09-07T02:11:35;5.97;;;5.20;;
31210;SDS011;17836;50.948;3.946;2023-09-07T02:14:01;5.63;;;4.80;;
31210;SDS011;17836;50.948;3.946;2023-09-07T02:16:27;4.95;;;4.55;;
31210;SDS011;17836;50.948;3.946;2023-09-07T02:19:00;9.15;;;4.40;;
31210;SDS011;17836;50.948;3.946;2023-09-07T02:21:28;5.70;;;4.75;;
31210;SDS011;17836;50.948;3.946;2023-09-07T02:23:54;6.18;;;3.78;;
31210;SDS011;17836;50.948;3.946;2023-09-07T02:26:19;4.47;;;3.90;;
31210;SDS011;17836;50.948;3.946;2023-09-07T02:28:44;4.70;;;4.27;;
31210;SDS011;17836;50.948;3.946;2023-09-07T02:31:09;7.87;;;4.60;;
31210;SDS011;17836;50.948;3.946;2023-09-07T02:33:35;9.87;;;5.03;;
31210;SDS011;17836;50.948;3.946;2023-09-07T02:36:00;5.45;;;4.95;;
31210;SDS011;17836;50.948;3.946;2023-09-07T02:38:25;8.18;;;5.20;;
31210;SDS011;17836;50.948;3.946;2023-09-07T02:40:51;5.95;;;4.68;;
31210;SDS011;17836;50.948;3.946;2023-09-07T02:43:18;5.68;;;5.15;;
31210;SDS011;17836;50.948;3.946;2023-09-07T02:45:43;5.70;;;5.25;;
31210;SDS011;17836;50.948;3.946;2023-09-07T02:48:08;5.90;;;4.90;;
31210;SDS011;17836;50.948;3.946;2023-09-07T02:50:37;6.22;;;5.65;;
31210;SDS011;17836;50.948;3.946;2023-09-07T02:53:02;7.00;;;6.30;;
31210;SDS011;17836;50.948;3.946;2023-09-07T02:55:29;6.53;;;4.65;;
31210;SDS011;17836;50.948;3.946;2023-09-07T02:57:56;8.45;;;4.80;;
31210;SDS011;17836;50.948;3.946;2023-09-07T03:00:21;5.82;;;5.32;;
31210;SDS011;17836;50.948;3.946;2023-09-07T03:02:50;6.38;;;4.97;;
31210;SDS011;17836;50.948;3.946;2023-09-07T03:05:15;6.45;;;5.03;;
31210;SDS011;17836;50.948;3.946;2023-09-07T03:07:41;6.43;;;4.55;;
31210;SDS011;17836;50.948;3.946;2023-09-07T03:10:08;10.07;;;5.13;;
31210;SDS011;17836;50.948;3.946;2023-09-07T03:12:34;5.20;;;4.70;;
31210;SDS011;17836;50.948;3.946;2023-09-07T03:14:59;6.23;;;5.63;;
31210;SDS011;17836;50.948;3.946;2023-09-07T03:17:28;7.47;;;5.43;;
31210;SDS011;17836;50.948;3.946;2023-09-07T03:19:54;7.53;;;5.78;;
31210;SDS011;17836;50.948;3.946;2023-09-07T03:22:24;7.90;;;6.10;;
31210;SDS011;17836;50.948;3.946;2023-09-07T03:24:50;7.05;;;5.75;;
31210;SDS011;17836;50.948;3.946;2023-09-07T03:27:18;6.57;;;5.80;;
31210;SDS011;17836;50.948;3.946;2023-09-07T03:29:46;10.35;;;5.60;;
31210;SDS011;17836;50.948;3.946;2023-09-07T03:32:14;6.05;;;5.30;;
31210;SDS011;17836;50.948;3.946;2023-09-07T03:34:39;6.73;;;5.80;;
31210;SDS011;17836;50.948;3.946;2023-09-07T03:37:07;5.30;;;4.80;;
31210;SDS011;17836;50.948;3.946;2023-09-07T03:39:36;5.95;;;4.95;;
31210;SDS011;17836;50.948;3.946;2023-09-07T03:42:01;4.63;;;4.30;;
31210;SDS011;17836;50.948;3.946;2023-09-07T03:44:27;5.43;;;4.93;;
31210;SDS011;17836;50.948;3.946;2023-09-07T03:46:52;5.13;;;4.30;;
31210;SDS011;17836;50.948;3.946;2023-09-07T03:49:17;4.37;;;4.03;;
31210;SDS011;17836;50.948;3.946;2023-09-07T03:51:42;4.50;;;4.10;;
31210;SDS011;17836;50.948;3.946;2023-09-07T03:54:08;5.38;;;4.85;;
31210;SDS011;17836;50.948;3.946;2023-09-07T03:56:33;6.37;;;5.00;;
31210;SDS011;17836;50.948;3.946;2023-09-07T03:58:59;8.70;;;5.45;;
31210;SDS011;17836;50.948;3.946;2023-09-07T04:01:24;12.50;;;5.93;;
31210;SDS011;17836;50.948;3.946;2023-09-07T04:03:50;7.25;;;5.80;;
31210;SDS011;17836;50.948;3.946;2023-09-07T04:06:15;9.93;;;5.97;;
31210;SDS011;17836;50.948;3.946;2023-09-07T04:08:41;11.57;;;5.47;;
31210;SDS011;17836;50.948;3.946;2023-09-07T04:11:06;7.00;;;5.57;;
31210;SDS011;17836;50.948;3.946;2023-09-07T04:13:31;8.57;;;6.47;;
31210;SDS011;17836;50.948;3.946;2023-09-07T04:15:57;8.70;;;5.90;;
31210;SDS011;17836;50.948;3.946;2023-09-07T04:18:22;11.30;;;7.10;;
31210;SDS011;17836;50.948;3.946;2023-09-07T04:20:47;10.47;;;6.67;;
31210;SDS011;17836;50.948;3.946;2023-09-07T04:23:12;9.97;;;6.50;;
31210;SDS011;17836;50.948;3.946;2023-09-07T04:25:38;9.85;;;5.82;;
31210;SDS011;17836;50.948;3.946;2023-09-07T04:28:06;10.98;;;6.00;;
31210;SDS011;17836;50.948;3.946;2023-09-07T04:30:38;7.35;;;6.45;;
31210;SDS011;17836;50.948;3.946;2023-09-07T04:33:04;9.90;;;6.95;;
31210;SDS011;17836;50.948;3.946;2023-09-07T04:35:29;11.48;;;6.20;;
31210;SDS011;17836;50.948;3.946;2023-09-07T04:37:57;8.48;;;6.70;;
31210;SDS011;17836;50.948;3.946;2023-09-07T04:40:23;9.48;;;6.07;;
31210;SDS011;17836;50.948;3.946;2023-09-07T04:42:49;7.80;;;6.28;;
31210;SDS011;17836;50.948;3.946;2023-09-07T04:45:14;11.10;;;6.73;;
31210;SDS011;17836;50.948;3.946;2023-09-07T04:47:39;8.25;;;6.38;;
31210;SDS011;17836;50.948;3.946;2023-09-07T04:50:05;8.90;;;6.30;;
31210;SDS011;17836;50.948;3.946;2023-09-07T04:52:31;8.93;;;6.28;;
31210;SDS011;17836;50.948;3.946;2023-09-07T04:54:56;7.45;;;6.65;;
31210;SDS011;17836;50.948;3.946;2023-09-07T04:57:22;14.83;;;6.63;;
31210;SDS011;17836;50.948;3.946;2023-09-07T04:59:47;9.70;;;7.17;;
31210;SDS011;17836;50.948;3.946;2023-09-07T05:02:12;9.38;;;7.05;;
31210;SDS011;17836;50.948;3.946;2023-09-07T05:04:38;11.18;;;6.32;;
31210;SDS011;17836;50.948;3.946;2023-09-07T05:07:03;9.93;;;5.70;;
31210;SDS011;17836;50.948;3.946;2023-09-07T05:09:29;10.00;;;5.90;;
31210;SDS011;17836;50.948;3.946;2023-09-07T05:11:55;7.88;;;5.75;;
31210;SDS011;17836;50.948;3.946;2023-09-07T05:14:20;9.68;;;5.97;;
31210;SDS011;17836;50.948;3.946;2023-09-07T05:16:45;8.20;;;5.22;;
31210;SDS011;17836;50.948;3.946;2023-09-07T05:19:10;8.00;;;5.95;;
31210;SDS011;17836;50.948;3.946;2023-09-07T05:21:36;6.50;;;5.80;;
31210;SDS011;17836;50.948;3.946;2023-09-07T05:24:01;13.80;;;5.73;;
31210;SDS011;17836;50.948;3.946;2023-09-07T05:26:26;9.27;;;6.00;;
31210;SDS011;17836;50.948;3.946;2023-09-07T05:28:53;11.43;;;6.18;;
31210;SDS011;17836;50.948;3.946;2023-09-07T05:31:18;9.63;;;6.97;;
31210;SDS011;17836;50.948;3.946;2023-09-07T05:33:46;17.23;;;6.47;;
31210;SDS011;17836;50.948;3.946;2023-09-07T05:36:11;9.33;;;5.60;;
31210;SDS011;17836;50.948;3.946;2023-09-07T05:38:36;10.20;;;6.50;;
31210;SDS011;17836;50.948;3.946;2023-09-07T05:41:02;13.77;;;6.68;;
31210;SDS011;17836;50.948;3.946;2023-09-07T05:43:28;8.23;;;5.80;;
31210;SDS011;17836;50.948;3.946;2023-09-07T05:45:53;9.43;;;6.75;;
31210;SDS011;17836;50.948;3.946;2023-09-07T05:48:19;9.03;;;6.20;;
31210;SDS011;17836;50.948;3.946;2023-09-07T05:50:44;11.93;;;6.55;;
31210;SDS011;17836;50.948;3.946;2023-09-07T05:53:10;11.02;;;6.40;;
31210;SDS011;17836;50.948;3.946;2023-09-07T05:55:35;7.50;;;6.13;;
31210;SDS011;17836;50.948;3.946;2023-09-07T05:58:04;9.63;;;7.27;;
31210;SDS011;17836;50.948;3.946;2023-09-07T06:00:29;11.70;;;8.13;;
31210;SDS011;17836;50.948;3.946;2023-09-07T06:02:57;8.63;;;7.23;;
31210;SDS011;17836;50.948;3.946;2023-09-07T06:05:22;14.52;;;8.63;;
31210;SDS011;17836;50.948;3.946;2023-09-07T06:07:47;18.35;;;8.48;;
31210;SDS011;17836;50.948;3.946;2023-09-07T06:10:13;11.45;;;9.63;;
31210;SDS011;17836;50.948;3.946;2023-09-07T06:12:38;12.18;;;9.85;;
31210;SDS011;17836;50.948;3.946;2023-09-07T06:15:06;13.03;;;9.77;;
31210;SDS011;17836;50.948;3.946;2023-09-07T06:17:32;12.25;;;9.75;;
31210;SDS011;17836;50.948;3.946;2023-09-07T06:19:57;15.27;;;9.90;;
31210;SDS011;17836;50.948;3.946;2023-09-07T06:22:29;15.20;;;9.33;;
31210;SDS011;17836;50.948;3.946;2023-09-07T06:24:54;14.35;;;9.40;;
31210;SDS011;17836;50.948;3.946;2023-09-07T06:27:21;12.02;;;10.20;;
31210;SDS011;17836;50.948;3.946;2023-09-07T06:29:46;11.57;;;9.80;;
31210;SDS011;17836;50.948;3.946;2023-09-07T06:32:11;15.30;;;10.33;;
31210;SDS011;17836;50.948;3.946;2023-09-07T06:34:37;11.48;;;10.27;;
31210;SDS011;17836;50.948;3.946;2023-09-07T06:37:02;21.50;;;10.80;;
31210;SDS011;17836;50.948;3.946;2023-09-07T06:39:28;12.75;;;10.90;;
31210;SDS011;17836;50.948;3.946;2023-09-07T06:41:55;15.60;;;11.43;;
31210;SDS011;17836;50.948;3.946;2023-09-07T06:44:20;13.10;;;11.63;;
31210;SDS011;17836;50.948;3.946;2023-09-07T06:46:46;14.57;;;11.50;;
31210;SDS011;17836;50.948;3.946;2023-09-07T06:49:12;15.37;;;11.83;;
31210;SDS011;17836;50.948;3.946;2023-09-07T06:51:37;12.60;;;11.25;;
31210;SDS011;17836;50.948;3.946;2023-09-07T06:54:02;15.57;;;13.07;;
31210;SDS011;17836;50.948;3.946;2023-09-07T06:56:30;13.60;;;12.20;;
31210;SDS011;17836;50.948;3.946;2023-09-07T06:58:57;11.93;;;10.82;;
31210;SDS011;17836;50.948;3.946;2023-09-07T07:01:22;12.73;;;11.27;;
31210;SDS011;17836;50.948;3.946;2023-09-07T07:03:47;16.40;;;10.93;;
31210;SDS011;17836;50.948;3.946;2023-09-07T07:06:14;12.25;;;11.00;;
31210;SDS011;17836;50.948;3.946;2023-09-07T07:08:39;11.68;;;10.30;;
31210;SDS011;17836;50.948;3.946;2023-09-07T07:11:04;10.07;;;9.07;;
31210;SDS011;17836;50.948;3.946;2023-09-07T07:13:32;14.50;;;10.13;;
31210;SDS011;17836;50.948;3.946;2023-09-07T07:15:57;10.38;;;9.35;;
31210;SDS011;17836;50.948;3.946;2023-09-07T07:18:23;12.13;;;10.30;;
31210;SDS011;17836;50.948;3.946;2023-09-07T07:20:48;11.15;;;9.40;;
31210;SDS011;17836;50.948;3.946;2023-09-07T07:23:14;12.13;;;9.40;;
31210;SDS011;17836;50.948;3.946;2023-09-07T07:25:39;10.57;;;8.40;;
31210;SDS011;17836;50.948;3.946;2023-09-07T07:28:07;9.73;;;8.55;;
31210;SDS011;17836;50.948;3.946;2023-09-07T07:30:37;10.32;;;7.82;;
31210;SDS011;17836;50.948;3.946;2023-09-07T07:33:02;8.90;;;7.63;;
31210;SDS011;17836;50.948;3.946;2023-09-07T07:35:31;9.57;;;8.57;;
31210;SDS011;17836;50.948;3.946;2023-09-07T07:37:56;12.15;;;8.40;;
31210;SDS011;17836;50.948;3.946;2023-09-07T07:40:22;8.73;;;7.20;;
31210;SDS011;17836;50.948;3.946;2023-09-07T07:42:47;10.10;;;7.87;;
31210;SDS011;17836;50.948;3.946;2023-09-07T07:45:13;10.75;;;7.22;;
31210;SDS011;17836;50.948;3.946;2023-09-07T07:47:41;9.23;;;7.53;;
31210;SDS011;17836;50.948;3.946;2023-09-07T07:50:07;6.65;;;6.05;;
31210;SDS011;17836;50.948;3.946;2023-09-07T07:52:32;7.20;;;6.25;;
31210;SDS011;17836;50.948;3.946;2023-09-07T07:55:00;8.43;;;6.60;;
31210;SDS011;17836;50.948;3.946;2023-09-07T07:57:30;9.07;;;7.07;;
31210;SDS011;17836;50.948;3.946;2023-09-07T07:59:56;7.93;;;6.43;;
31210;SDS011;17836;50.948;3.946;2023-09-07T08:02:24;6.40;;;5.80;;
31210;SDS011;17836;50.948;3.946;2023-09-07T08:04:49;8.43;;;6.47;;
31210;SDS011;17836;50.948;3.946;2023-09-07T08:07:14;7.22;;;6.50;;
31210;SDS011;17836;50.948;3.946;2023-09-07T08:09:40;9.67;;;5.83;;
31210;SDS011;17836;50.948;3.946;2023-09-07T08:12:05;10.40;;;5.93;;
31210;SDS011;17836;50.948;3.946;2023-09-07T08:14:31;8.63;;;5.50;;
31210;SDS011;17836;50.948;3.946;2023-09-07T08:16:56;6.15;;;4.97;;
31210;SDS011;17836;50.948;3.946;2023-09-07T08:19:24;5.20;;;4.70;;
31210;SDS011;17836;50.948;3.946;2023-09-07T08:21:50;4.72;;;4.30;;
31210;SDS011;17836;50.948;3.946;2023-09-07T08:24:15;4.72;;;4.22;;
31210;SDS011;17836;50.948;3.946;2023-09-07T08:26:40;5.47;;;4.63;;
31210;SDS011;17836;50.948;3.946;2023-09-07T08:29:07;6.28;;;4.43;;
31210;SDS011;17836;50.948;3.946;2023-09-07T08:31:33;6.00;;;4.30;;
31210;SDS011;17836;50.948;3.946;2023-09-07T08:34:04;3.78;;;3.47;;
31210;SDS011;17836;50.948;3.946;2023-09-07T08:36:29;5.10;;;3.85;;
31210;SDS011;17836;50.948;3.946;2023-09-07T08:38:57;4.00;;;3.60;;
31210;SDS011;17836;50.948;3.946;2023-09-07T08:41:24;5.05;;;3.28;;
31210;SDS011;17836;50.948;3.946;2023-09-07T08:43:50;3.83;;;2.97;;
31210;SDS011;17836;50.948;3.946;2023-09-07T08:46:18;5.28;;;3.45;;
31210;SDS011;17836;50.948;3.946;2023-09-07T08:48:45;6.43;;;3.35;;
31210;SDS011;17836;50.948;3.946;2023-09-07T08:51:12;4.30;;;3.33;;
31210;SDS011;17836;50.948;3.946;2023-09-07T08:53:38;3.75;;;3.40;;
31210;SDS011;17836;50.948;3.946;2023-09-07T08:56:04;5.85;;;3.80;;
31210;SDS011;17836;50.948;3.946;2023-09-07T08:58:30;4.97;;;3.40;;
31210;SDS011;17836;50.948;3.946;2023-09-07T09:00:57;9.90;;;4.13;;
31210;SDS011;17836;50.948;3.946;2023-09-07T09:03:22;8.70;;;3.53;;
31210;SDS011;17836;50.948;3.946;2023-09-07T09:05:52;3.40;;;3.10;;
31210;SDS011;17836;50.948;3.946;2023-09-07T09:08:18;6.70;;;3.45;;
31210;SDS011;17836;50.948;3.946;2023-09-07T09:10:45;3.28;;;2.97;;
31210;SDS011;17836;50.948;3.946;2023-09-07T09:13:13;3.50;;;3.20;;
31210;SDS011;17836;50.948;3.946;2023-09-07T09:15:39;5.93;;;3.53;;
31210;SDS011;17836;50.948;3.946;2023-09-07T09:18:11;4.30;;;3.20;;
31210;SDS011;17836;50.948;3.946;2023-09-07T09:20:37;5.80;;;3.67;;
31210;SDS011;17836;50.948;3.946;2023-09-07T09:23:03;5.53;;;3.38;;
31210;SDS011;17836;50.948;3.946;2023-09-07T09:25:30;6.85;;;2.83;;
31210;SDS011;17836;50.948;3.946;2023-09-07T09:27:58;3.22;;;2.80;;
31210;SDS011;17836;50.948;3.946;2023-09-07T09:30:24;8.47;;;3.77;;
31210;SDS011;17836;50.948;3.946;2023-09-07T09:32:52;5.47;;;3.03;;
31210;SDS011;17836;50.948;3.946;2023-09-07T09:35:17;4.25;;;2.80;;
31210;SDS011;17836;50.948;3.946;2023-09-07T09:37:44;3.60;;;3.05;;
31210;SDS011;17836;50.948;3.946;2023-09-07T09:40:13;3.97;;;3.10;;
31210;SDS011;17836;50.948;3.946;2023-09-07T09:42:41;3.10;;;2.72;;
31210;SDS011;17836;50.948;3.946;2023-09-07T09:45:07;4.80;;;2.85;;
31210;SDS011;17836;50.948;3.946;2023-09-07T09:47:35;4.35;;;3.08;;
31210;SDS011;17836;50.948;3.946;2023-09-07T09:50:04;6.43;;;3.35;;
31210;SDS011;17836;50.948;3.946;2023-09-07T09:52:31;4.00;;;3.22;;
31210;SDS011;17836;50.948;3.946;2023-09-07T09:54:58;3.63;;;2.70;;
31210;SDS011;17836;50.948;3.946;2023-09-07T09:57:25;4.80;;;2.65;;
31210;SDS011;17836;50.948;3.946;2023-09-07T09:59:50;3.10;;;2.80;;
31210;SDS011;17836;50.948;3.946;2023-09-07T10:02:17;3.13;;;2.78;;
31210;SDS011;17836;50.948;3.946;2023-09-07T10:04:42;5.47;;;3.28;;
31210;SDS011;17836;50.948;3.946;2023-09-07T10:07:07;4.00;;;3.25;;
31210;SDS011;17836;50.948;3.946;2023-09-07T10:09:36;3.85;;;2.88;;
31210;SDS011;17836;50.948;3.946;2023-09-07T10:12:03;10.00;;;3.15;;
31210;SDS011;17836;50.948;3.946;2023-09-07T10:14:39;3.65;;;2.85;;
31210;SDS011;17836;50.948;3.946;2023-09-07T10:17:05;3.03;;;2.58;;
31210;SDS011;17836;50.948;3.946;2023-09-07T10:19:30;3.65;;;3.05;;
31210;SDS011;17836;50.948;3.946;2023-09-07T10:21:58;4.63;;;2.90;;
31210;SDS011;17836;50.948;3.946;2023-09-07T10:24:30;3.53;;;3.13;;
31210;SDS011;17836;50.948;3.946;2023-09-07T10:27:04;5.80;;;2.97;;
31210;SDS011;17836;50.948;3.946;2023-09-07T10:29:40;7.70;;;3.22;;
31210;SDS011;17836;50.948;3.946;2023-09-07T10:32:05;4.25;;;3.00;;
31210;SDS011;17836;50.948;3.946;2023-09-07T10:34:41;6.07;;;3.20;;
31210;SDS011;17836;50.948;3.946;2023-09-07T10:37:10;3.33;;;2.58;;
31210;SDS011;17836;50.948;3.946;2023-09-07T10:39:37;3.30;;;2.60;;
31210;SDS011;17836;50.948;3.946;2023-09-07T10:42:04;4.35;;;2.97;;
31210;SDS011;17836;50.948;3.946;2023-09-07T10:44:29;2.55;;;2.33;;
31210;SDS011;17836;50.948;3.946;2023-09-07T10:46:57;3.17;;;2.75;;
31210;SDS011;17836;50.948;3.946;2023-09-07T10:49:23;3.05;;;2.83;;
31210;SDS011;17836;50.948;3.946;2023-09-07T10:51:48;3.58;;;2.53;;
31210;SDS011;17836;50.948;3.946;2023-09-07T10:54:17;3.63;;;2.50;;
31210;SDS011;17836;50.948;3.946;2023-09-07T10:56:43;2.60;;;2.40;;
31210;SDS011;17836;50.948;3.946;2023-09-07T10:59:08;3.50;;;2.50;;
31210;SDS011;17836;50.948;3.946;2023-09-07T11:01:34;3.33;;;2.37;;
31210;SDS011;17836;50.948;3.946;2023-09-07T11:04:03;3.57;;;2.90;;
31210;SDS011;17836;50.948;3.946;2023-09-07T11:08:55;3.57;;;1.97;;
31210;SDS011;17836;50.948;3.946;2023-09-07T11:11:20;2.63;;;2.43;;
31210;SDS011;17836;50.948;3.946;2023-09-07T11:13:47;3.35;;;2.72;;
31210;SDS011;17836;50.948;3.946;2023-09-07T11:16:13;2.67;;;2.45;;
31210;SDS011;17836;50.948;3.946;2023-09-07T11:18:39;5.60;;;2.70;;
31210;SDS011;17836;50.948;3.946;2023-09-07T11:21:05;2.90;;;2.60;;
31210;SDS011;17836;50.948;3.946;2023-09-07T11:23:32;4.72;;;2.70;;
31210;SDS011;17836;50.948;3.946;2023-09-07T11:28:29;4.15;;;2.60;;
31210;SDS011;17836;50.948;3.946;2023-09-07T11:30:57;4.88;;;2.17;;
31210;SDS011;17836;50.948;3.946;2023-09-07T11:33:23;4.53;;;2.78;;
31210;SDS011;17836;50.948;3.946;2023-09-07T11:35:49;2.85;;;2.55;;
31210;SDS011;17836;50.948;3.946;2023-09-07T11:38:15;3.17;;;2.42;;
31210;SDS011;17836;50.948;3.946;2023-09-07T11:40:43;2.67;;;2.45;;
31210;SDS011;17836;50.948;3.946;2023-09-07T11:43:10;4.30;;;2.25;;
31210;SDS011;17836;50.948;3.946;2023-09-07T11:45:36;2.47;;;2.20;;
31210;SDS011;17836;50.948;3.946;2023-09-07T11:48:03;3.80;;;2.15;;
31210;SDS011;17836;50.948;3.946;2023-09-07T11:50:29;2.70;;;2.25;;
31210;SDS011;17836;50.948;3.946;2023-09-07T11:52:59;3.22;;;2.92;;
31210;SDS011;17836;50.948;3.946;2023-09-07T11:55:25;3.28;;;2.90;;
31210;SDS011;17836;50.948;3.946;2023-09-07T11:57:50;3.30;;;2.73;;
31210;SDS011;17836;50.948;3.946;2023-09-07T12:00:16;4.03;;;2.58;;
31210;SDS011;17836;50.948;3.946;2023-09-07T12:02:45;5.05;;;2.78;;
31210;SDS011;17836;50.948;3.946;2023-09-07T12:05:10;3.40;;;2.80;;
31210;SDS011;17836;50.948;3.946;2023-09-07T12:07:39;3.85;;;3.00;;
31210;SDS011;17836;50.948;3.946;2023-09-07T12:10:07;5.88;;;2.88;;
31210;SDS011;17836;50.948;3.946;2023-09-07T12:12:39;5.10;;;3.42;;
31210;SDS011;17836;50.948;3.946;2023-09-07T12:15:04;4.05;;;2.97;;
31210;SDS011;17836;50.948;3.946;2023-09-07T12:17:30;6.43;;;2.95;;
31210;SDS011;17836;50.948;3.946;2023-09-07T12:19:55;4.22;;;3.08;;
31210;SDS011;17836;50.948;3.946;2023-09-07T12:22:21;3.30;;;2.60;;
31210;SDS011;17836;50.948;3.946;2023-09-07T12:24:46;3.73;;;3.10;;
31210;SDS011;17836;50.948;3.946;2023-09-07T12:27:11;5.97;;;2.87;;
31210;SDS011;17836;50.948;3.946;2023-09-07T12:29:36;3.83;;;2.73;;
31210;SDS011;17836;50.948;3.946;2023-09-07T12:32:02;5.68;;;3.47;;
31210;SDS011;17836;50.948;3.946;2023-09-07T12:34:27;4.22;;;3.10;;
31210;SDS011;17836;50.948;3.946;2023-09-07T12:36:53;3.27;;;2.93;;
31210;SDS011;17836;50.948;3.946;2023-09-07T12:39:18;3.77;;;2.67;;
31210;SDS011;17836;50.948;3.946;2023-09-07T12:41:46;3.67;;;3.00;;
31210;SDS011;17836;50.948;3.946;2023-09-07T12:44:13;5.22;;;3.55;;
31210;SDS011;17836;50.948;3.946;2023-09-07T12:46:38;2.47;;;2.27;;
31210;SDS011;17836;50.948;3.946;2023-09-07T12:49:04;3.30;;;3.00;;
31210;SDS011;17836;50.948;3.946;2023-09-07T12:51:29;3.07;;;2.60;;
31210;SDS011;17836;50.948;3.946;2023-09-07T12:53:57;4.45;;;3.13;;
31210;SDS011;17836;50.948;3.946;2023-09-07T12:56:22;3.30;;;3.00;;
31210;SDS011;17836;50.948;3.946;2023-09-07T12:58:50;4.80;;;2.50;;
31210;SDS011;17836;50.948;3.946;2023-09-07T13:01:17;4.97;;;2.90;;
31210;SDS011;17836;50.948;3.946;2023-09-07T13:03:43;4.93;;;2.83;;
31210;SDS011;17836;50.948;3.946;2023-09-07T13:06:10;3.20;;;2.90;;
31210;SDS011;17836;50.948;3.946;2023-09-07T13:08:36;4.00;;;3.23;;
31210;SDS011;17836;50.948;3.946;2023-09-07T13:11:01;6.40;;;3.10;;
31210;SDS011;17836;50.948;3.946;2023-09-07T13:13:26;3.50;;;3.20;;
31210;SDS011;17836;50.948;3.946;2023-09-07T13:15:57;6.25;;;3.15;;
31210;SDS011;17836;50.948;3.946;2023-09-07T13:18:22;2.92;;;2.60;;
31210;SDS011;17836;50.948;3.946;2023-09-07T13:20:48;3.30;;;3.00;;
31210;SDS011;17836;50.948;3.946;2023-09-07T13:23:15;2.70;;;2.35;;
31210;SDS011;17836;50.948;3.946;2023-09-07T13:25:40;3.25;;;2.70;;
31210;SDS011;17836;50.948;3.946;2023-09-07T13:28:05;3.50;;;3.10;;
31210;SDS011;17836;50.948;3.946;2023-09-07T13:30:34;2.88;;;2.63;;
31210;SDS011;17836;50.948;3.946;2023-09-07T13:33:02;4.70;;;2.97;;
31210;SDS011;17836;50.948;3.946;2023-09-07T13:35:27;3.22;;;2.58;;
31210;SDS011;17836;50.948;3.946;2023-09-07T13:37:53;3.93;;;2.47;;
31210;SDS011;17836;50.948;3.946;2023-09-07T13:40:18;3.87;;;2.43;;
31210;SDS011;17836;50.948;3.946;2023-09-07T13:42:48;3.25;;;2.40;;
31210;SDS011;17836;50.948;3.946;2023-09-07T13:45:13;2.42;;;2.22;;
31210;SDS011;17836;50.948;3.946;2023-09-07T13:47:38;2.60;;;2.40;;
31210;SDS011;17836;50.948;3.946;2023-09-07T13:50:04;5.80;;;2.73;;
31210;SDS011;17836;50.948;3.946;2023-09-07T13:52:29;5.13;;;2.60;;
31210;SDS011;17836;50.948;3.946;2023-09-07T13:54:55;2.90;;;2.23;;
31210;SDS011;17836;50.948;3.946;2023-09-07T13:57:20;3.13;;;2.23;;
31210;SDS011;17836;50.948;3.946;2023-09-07T13:59:45;2.93;;;2.40;;
31210;SDS011;17836;50.948;3.946;2023-09-07T14:02:10;4.83;;;2.40;;
31210;SDS011;17836;50.948;3.946;2023-09-07T14:04:36;3.00;;;2.13;;
31210;SDS011;17836;50.948;3.946;2023-09-07T14:07:01;2.23;;;2.03;;
31210;SDS011;17836;50.948;3.946;2023-09-07T14:09:26;2.23;;;1.97;;
31210;SDS011;17836;50.948;3.946;2023-09-07T14:11:54;2.42;;;2.22;;
31210;SDS011;17836;50.948;3.946;2023-09-07T14:14:19;2.63;;;2.30;;
31210;SDS011;17836;50.948;3.946;2023-09-07T14:16:45;5.40;;;2.42;;
31210;SDS011;17836;50.948;3.946;2023-09-07T14:19:11;2.47;;;2.28;;
31210;SDS011;17836;50.948;3.946;2023-09-07T14:21:39;2.53;;;2.20;;
31210;SDS011;17836;50.948;3.946;2023-09-07T14:24:04;2.70;;;2.27;;
31210;SDS011;17836;50.948;3.946;2023-09-07T14:26:30;4.70;;;2.53;;
31210;SDS011;17836;50.948;3.946;2023-09-07T14:28:55;5.77;;;2.97;;
31210;SDS011;17836;50.948;3.946;2023-09-07T14:31:20;2.40;;;2.20;;
31210;SDS011;17836;50.948;3.946;2023-09-07T14:33:45;2.53;;;2.27;;
31210;SDS011;17836;50.948;3.946;2023-09-07T14:36:11;3.73;;;2.40;;
31210;SDS011;17836;50.948;3.946;2023-09-07T14:38:37;3.63;;;2.30;;
31210;SDS011;17836;50.948;3.946;2023-09-07T14:41:09;2.58;;;2.20;;
31210;SDS011;17836;50.948;3.946;2023-09-07T14:43:37;1.88;;;1.77;;
31210;SDS011;17836;50.948;3.946;2023-09-07T14:46:02;2.78;;;2.35;;
31210;SDS011;17836;50.948;3.946;2023-09-07T14:48:27;2.20;;;2.00;;
31210;SDS011;17836;50.948;3.946;2023-09-07T14:50:53;2.60;;;2.20;;